Galeville, New York
Current Conditions -  °F | °C
As of 8:54 PM on Monday 24 Nov 2014 (Local Time) from KSYR Reporting Station
Scattered Clouds Scattered Clouds  
Wind Chill: 60°   Ceiling: Unl
Heat Index: 60°   Visibility: 10mi
Dew Point: 46°   Wind: 16mph
Humidity: 60%   Direction: 230°SW
Pressure: 29.53"   Gusts: 26mph
Location:  43.1098°N, 76.1878°W
Report Text: KSYR 250154Z 23014G23KT 10SM FEW065 SCT085 16/08 A2953 RMK AO2 SLP997 T01560078
Loading
Personal Weather Stations






























Interactive Weather Map New forecast layout! Learn more

10-Day Weather Forecast

Advertisements
Track Severe Weather on mobile